createdAt,value
2023-10-13T00:02:02.067Z,100.00
2023-10-13T00:04:30.238Z,100.00
2023-10-13T00:06:57.138Z,100.00
2023-10-13T00:09:27.407Z,100.00
2023-10-13T00:11:53.836Z,100.00
2023-10-13T00:14:20.583Z,100.00
2023-10-13T00:16:47.073Z,100.00
2023-10-13T00:19:13.531Z,100.00
2023-10-13T00:21:40.188Z,100.00
2023-10-13T00:24:07.197Z,100.00
2023-10-13T00:26:34.005Z,100.00
2023-10-13T00:29:01.762Z,100.00
2023-10-13T00:31:28.534Z,100.00
2023-10-13T00:33:54.942Z,100.00
2023-10-13T00:36:21.327Z,100.00
2023-10-13T00:38:47.731Z,100.00
2023-10-13T00:41:14.112Z,100.00
2023-10-13T00:43:48.390Z,100.00
2023-10-13T00:46:14.959Z,100.00
2023-10-13T00:48:43.656Z,100.00
2023-10-13T00:51:13.062Z,100.00
2023-10-13T00:53:41.397Z,100.00
2023-10-13T00:56:09.090Z,100.00
2023-10-13T00:58:35.810Z,100.00
2023-10-13T01:01:02.829Z,100.00
2023-10-13T01:03:29.226Z,100.00
2023-10-13T01:05:57.807Z,100.00
2023-10-13T01:08:34.437Z,100.00
2023-10-13T01:11:01.296Z,100.00
2023-10-13T01:13:27.731Z,100.00
2023-10-13T01:15:54.149Z,100.00
2023-10-13T01:18:20.556Z,100.00
2023-10-13T01:20:47.007Z,100.00
2023-10-13T01:23:14.212Z,100.00
2023-10-13T01:25:40.588Z,100.00
2023-10-13T01:28:06.998Z,100.00
2023-10-13T01:30:33.389Z,100.00
2023-10-13T01:32:59.806Z,100.00
2023-10-13T01:35:26.260Z,100.00
2023-10-13T01:37:52.995Z,100.00
2023-10-13T01:40:19.455Z,100.00
2023-10-13T01:42:47.438Z,100.00
2023-10-13T01:45:13.871Z,100.00
2023-10-13T01:47:40.343Z,100.00
2023-10-13T01:50:07.910Z,100.00
2023-10-13T01:52:34.312Z,100.00
2023-10-13T01:55:00.675Z,100.00
2023-10-13T01:57:27.043Z,100.00
2023-10-13T01:59:53.396Z,100.00
2023-10-13T02:02:19.810Z,100.00
2023-10-13T02:04:46.287Z,100.00
2023-10-13T02:07:12.747Z,100.00
2023-10-13T02:09:39.134Z,100.00
2023-10-13T02:12:05.701Z,100.00
2023-10-13T02:14:32.042Z,100.00
2023-10-13T02:16:58.423Z,100.00
2023-10-13T02:19:24.896Z,100.00
2023-10-13T02:21:51.254Z,100.00
2023-10-13T02:24:17.613Z,100.00
2023-10-13T02:26:43.999Z,100.00
2023-10-13T02:29:10.376Z,100.00
2023-10-13T02:31:38.027Z,100.00
2023-10-13T02:34:05.302Z,100.00
2023-10-13T02:36:31.685Z,100.00
2023-10-13T02:38:58.038Z,100.00
2023-10-13T02:41:24.373Z,100.00
2023-10-13T02:43:50.757Z,100.00
2023-10-13T02:46:17.227Z,100.00
2023-10-13T02:48:44.183Z,100.00
2023-10-13T02:51:10.520Z,100.00
2023-10-13T02:53:36.888Z,100.00
2023-10-13T02:56:03.322Z,100.00
2023-10-13T02:58:29.763Z,100.00
2023-10-13T03:00:56.177Z,100.00
2023-10-13T03:03:22.610Z,100.00
2023-10-13T03:05:49.028Z,100.00
2023-10-13T03:08:15.383Z,100.00
2023-10-13T03:10:41.785Z,100.00
2023-10-13T03:13:08.243Z,100.00
2023-10-13T03:15:35.017Z,100.00
2023-10-13T03:18:01.538Z,100.00
2023-10-13T03:20:27.977Z,100.00
2023-10-13T03:22:54.405Z,100.00
2023-10-13T03:25:20.853Z,100.00
2023-10-13T03:27:47.231Z,100.00
2023-10-13T03:30:13.771Z,100.00
2023-10-13T03:32:40.173Z,100.00
2023-10-13T03:35:07.190Z,100.00
2023-10-13T03:37:33.588Z,100.00
2023-10-13T03:40:00.021Z,100.00
2023-10-13T03:42:26.368Z,100.00
2023-10-13T03:44:52.751Z,100.00
2023-10-13T03:47:19.235Z,100.00
2023-10-13T03:49:46.527Z,100.00
2023-10-13T03:52:12.956Z,100.00
2023-10-13T03:54:39.345Z,100.00
2023-10-13T03:57:05.702Z,100.00
2023-10-13T03:59:32.061Z,100.00
2023-10-13T04:01:58.532Z,100.00
2023-10-13T04:04:25.664Z,100.00
2023-10-13T04:06:52.111Z,100.00
2023-10-13T04:09:20.381Z,100.00
2023-10-13T04:11:46.817Z,100.00
2023-10-13T04:14:13.191Z,100.00
2023-10-13T04:16:39.599Z,100.00
2023-10-13T04:19:06.210Z,100.00
2023-10-13T04:21:32.561Z,100.00
2023-10-13T04:23:58.924Z,100.00
2023-10-13T04:26:25.334Z,100.00
2023-10-13T04:28:51.701Z,100.00
2023-10-13T04:31:18.144Z,100.00
2023-10-13T04:33:44.555Z,100.00
2023-10-13T04:36:13.115Z,100.00
2023-10-13T04:38:39.444Z,100.00
2023-10-13T04:41:05.816Z,100.00
2023-10-13T04:43:32.203Z,100.00
2023-10-13T04:46:00.870Z,100.00
2023-10-13T04:48:27.343Z,100.00
2023-10-13T04:50:53.778Z,100.00
2023-10-13T04:53:20.151Z,100.00
2023-10-13T04:55:50.223Z,100.00
2023-10-13T04:58:16.601Z,100.00
2023-10-13T05:00:42.964Z,100.00
2023-10-13T05:03:09.355Z,100.00
2023-10-13T05:05:35.748Z,100.00
2023-10-13T05:08:02.132Z,100.00
2023-10-13T05:10:29.407Z,100.00
2023-10-13T05:12:55.793Z,100.00
2023-10-13T05:15:22.149Z,100.00
2023-10-13T05:17:48.649Z,100.00
2023-10-13T05:20:15.116Z,100.00
2023-10-13T05:22:41.558Z,100.00
2023-10-13T05:25:08.017Z,100.00
2023-10-13T05:27:34.394Z,100.00
2023-10-13T05:30:00.747Z,100.00
2023-10-13T05:32:27.430Z,100.00
2023-10-13T05:34:53.934Z,100.00
2023-10-13T05:37:20.377Z,100.00
2023-10-13T05:39:46.802Z,100.00
2023-10-13T05:42:13.174Z,100.00
2023-10-13T05:44:39.567Z,100.00
2023-10-13T05:47:06.202Z,100.00
2023-10-13T05:49:32.696Z,100.00
2023-10-13T05:51:59.141Z,100.00
2023-10-13T05:54:25.654Z,100.00
2023-10-13T05:56:53.207Z,100.00
2023-10-13T05:59:19.708Z,100.00
2023-10-13T06:01:46.368Z,100.00
2023-10-13T06:04:12.851Z,100.00
2023-10-13T06:06:39.286Z,100.00
2023-10-13T06:09:05.617Z,100.00
2023-10-13T06:11:31.987Z,100.00
2023-10-13T06:13:58.347Z,100.00
2023-10-13T06:16:24.918Z,100.00
2023-10-13T06:18:51.387Z,100.00
2023-10-13T06:21:17.747Z,100.00
2023-10-13T06:23:44.115Z,100.00
2023-10-13T06:26:10.471Z,100.00
2023-10-13T06:28:36.857Z,100.00
2023-10-13T06:31:05.950Z,100.00
2023-10-13T06:33:35.578Z,100.00
2023-10-13T06:36:03.278Z,100.00
2023-10-13T06:38:30.538Z,100.00
2023-10-13T06:40:57.088Z,100.00
2023-10-13T06:43:24.445Z,100.00
2023-10-13T06:45:52.556Z,100.00
2023-10-13T06:48:18.963Z,100.00
2023-10-13T06:50:49.482Z,100.00
2023-10-13T06:53:15.835Z,100.00
2023-10-13T06:55:42.220Z,100.00
2023-10-13T06:58:08.639Z,100.00
2023-10-13T07:00:34.972Z,100.00
2023-10-13T07:03:02.269Z,100.00
2023-10-13T07:05:28.893Z,100.00
2023-10-13T07:07:55.365Z,100.00
2023-10-13T07:10:21.796Z,100.00
2023-10-13T07:12:48.185Z,100.00
2023-10-13T07:15:14.668Z,100.00
2023-10-13T07:17:41.152Z,100.00
2023-10-13T07:20:08.643Z,100.00
2023-10-13T07:22:35.034Z,100.00
2023-10-13T07:25:01.428Z,100.00
2023-10-13T07:27:27.817Z,100.00
2023-10-13T07:29:56.590Z,100.00
2023-10-13T07:32:26.049Z,100.00
2023-10-13T07:34:56.290Z,100.00
2023-10-13T07:37:23.957Z,100.00
2023-10-13T07:39:50.359Z,100.00
2023-10-13T07:42:16.718Z,100.00
2023-10-13T07:44:43.093Z,100.00
2023-10-13T07:47:09.625Z,100.00
2023-10-13T07:49:39.860Z,100.00
2023-10-13T07:52:09.584Z,100.00
2023-10-13T07:54:35.962Z,100.00
2023-10-13T07:57:02.312Z,100.00
2023-10-13T07:59:28.649Z,100.00
2023-10-13T08:01:55.073Z,100.00
2023-10-13T08:04:21.505Z,100.00
2023-10-13T08:06:47.857Z,100.00
2023-10-13T08:09:14.388Z,100.00
2023-10-13T08:11:41.132Z,100.00
2023-10-13T08:14:12.977Z,100.00
2023-10-13T08:16:49.214Z,100.00
2023-10-13T08:19:17.629Z,100.00
2023-10-13T08:21:45.477Z,100.00
2023-10-13T08:24:11.839Z,100.00
2023-10-13T08:26:38.228Z,100.00
2023-10-13T08:29:05.518Z,100.00
2023-10-13T08:31:32.337Z,100.00
2023-10-13T08:33:58.775Z,100.00
2023-10-13T08:36:25.162Z,100.00
2023-10-13T08:38:51.635Z,100.00
2023-10-13T08:41:18.065Z,100.00
2023-10-13T08:43:44.937Z,100.00
2023-10-13T08:46:12.725Z,100.00
2023-10-13T08:48:40.617Z,100.00
2023-10-13T08:51:07.088Z,100.00
2023-10-13T08:53:33.728Z,100.00
2023-10-13T08:56:10.421Z,100.00
2023-10-13T08:58:38.660Z,100.00
2023-10-13T09:01:05.048Z,99.32
2023-10-13T09:03:31.470Z,98.49
2023-10-13T09:05:57.890Z,99.66
2023-10-13T09:08:27.969Z,100.00
2023-10-13T09:10:59.273Z,100.00
2023-10-13T09:13:35.567Z,99.63
2023-10-13T09:16:10.381Z,98.57
2023-10-13T09:18:36.675Z,99.60
2023-10-13T09:21:03.033Z,98.73
2023-10-13T09:23:29.370Z,98.77
2023-10-13T09:26:06.386Z,98.45
2023-10-13T09:28:32.882Z,98.93
2023-10-13T09:30:59.351Z,99.60
2023-10-13T09:33:28.059Z,99.68
2023-10-13T09:35:54.484Z,98.88
2023-10-13T09:38:21.268Z,96.54
2023-10-13T09:40:47.907Z,95.72
2023-10-13T09:43:14.364Z,95.21
2023-10-13T09:45:40.856Z,94.01
2023-10-13T09:48:11.417Z,93.43
2023-10-13T09:50:39.914Z,94.14
2023-10-13T09:53:06.690Z,92.93
2023-10-13T09:55:37.667Z,92.12
2023-10-13T09:58:11.734Z,91.27
2023-10-13T10:00:44.611Z,91.75
2023-10-13T10:03:11.254Z,90.72
2023-10-13T10:05:37.757Z,90.90
2023-10-13T10:08:04.495Z,89.37
2023-10-13T10:11:01.556Z,87.90
2023-10-13T10:13:45.193Z,87.85
2023-10-13T10:16:16.377Z,88.25
2023-10-13T10:18:43.081Z,86.51
2023-10-13T10:21:09.460Z,86.32
2023-10-13T10:23:35.878Z,86.13
2023-10-13T10:26:11.999Z,85.49
2023-10-13T10:28:39.708Z,85.41
2023-10-13T10:31:07.358Z,84.32
2023-10-13T10:33:33.838Z,84.32
2023-10-13T10:36:02.010Z,84.31
2023-10-13T10:38:28.410Z,84.48
2023-10-13T10:41:07.139Z,82.64
2023-10-13T10:43:38.505Z,81.97
2023-10-13T10:46:05.203Z,81.78
2023-10-13T10:48:32.936Z,79.49
2023-10-13T10:50:59.629Z,77.01
2023-10-13T10:53:26.177Z,77.32
2023-10-13T10:55:52.587Z,78.49
2023-10-13T10:58:19.015Z,77.57
2023-10-13T11:00:45.431Z,78.43
2023-10-13T11:03:11.859Z,78.37
2023-10-13T11:05:46.208Z,79.84
2023-10-13T11:08:25.272Z,80.08
2023-10-13T11:10:51.693Z,79.42
2023-10-13T11:13:18.125Z,77.98
2023-10-13T11:15:45.434Z,75.60
2023-10-13T11:18:12.254Z,76.22
2023-10-13T11:20:43.160Z,75.20
2023-10-13T11:23:13.453Z,75.84
2023-10-13T11:25:40.144Z,72.36
2023-10-13T11:28:17.647Z,73.78
2023-10-13T11:30:45.161Z,74.36
2023-10-13T11:33:12.280Z,72.01
2023-10-13T11:35:40.180Z,72.64
2023-10-13T11:38:06.585Z,72.49
2023-10-13T11:40:33.200Z,72.92
2023-10-13T11:45:27.284Z,69.77
2023-10-13T11:47:53.832Z,68.62
2023-10-13T11:50:20.236Z,66.87
2023-10-13T11:52:46.610Z,67.78
2023-10-13T11:55:13.018Z,67.55
2023-10-13T11:57:39.372Z,65.96
2023-10-13T12:00:06.463Z,66.80
2023-10-13T12:02:33.002Z,65.41
2023-10-13T12:04:59.518Z,66.09
2023-10-13T12:07:26.307Z,67.18
2023-10-13T12:09:53.174Z,67.32
2023-10-13T12:12:19.733Z,66.80
2023-10-13T12:14:46.116Z,67.86
2023-10-13T12:17:12.550Z,67.75
2023-10-13T12:19:38.936Z,66.99
2023-10-13T12:22:05.506Z,67.36
2023-10-13T12:24:31.914Z,66.58
2023-10-13T12:26:58.679Z,66.08
2023-10-13T12:29:25.445Z,66.37
2023-10-13T12:31:51.841Z,66.26
2023-10-13T12:34:18.215Z,66.45
2023-10-13T12:36:44.586Z,65.98
2023-10-13T12:39:11.023Z,65.62
2023-10-13T12:41:37.910Z,65.64
2023-10-13T12:44:06.029Z,66.03
2023-10-13T12:46:32.431Z,65.91
2023-10-13T12:48:58.872Z,64.34
2023-10-13T12:51:25.473Z,65.43
2023-10-13T12:53:53.589Z,63.62
2023-10-13T12:56:21.290Z,63.12
2023-10-13T12:58:47.730Z,65.46
2023-10-13T13:01:14.201Z,65.33
2023-10-13T13:03:40.638Z,65.36
2023-10-13T13:06:06.992Z,65.74
2023-10-13T13:08:33.641Z,65.17
2023-10-13T13:10:59.990Z,66.04
2023-10-13T13:13:26.452Z,66.07
2023-10-13T13:15:52.967Z,64.95
2023-10-13T13:18:19.402Z,63.61
2023-10-13T13:20:46.215Z,63.92
2023-10-13T13:23:12.603Z,63.82
2023-10-13T13:25:39.158Z,63.96
2023-10-13T13:28:05.852Z,63.28
2023-10-13T13:30:32.419Z,63.67
2023-10-13T13:32:58.871Z,63.10
2023-10-13T13:35:25.333Z,64.67
2023-10-13T13:37:51.858Z,64.20
2023-10-13T13:40:18.267Z,62.43
2023-10-13T13:42:45.786Z,63.07
2023-10-13T13:45:19.968Z,62.92
2023-10-13T13:47:46.417Z,62.49
2023-10-13T13:50:12.824Z,61.94
2023-10-13T13:52:39.209Z,62.89
2023-10-13T13:55:05.997Z,62.09
2023-10-13T13:57:32.372Z,62.68
2023-10-13T13:59:58.721Z,61.65
2023-10-13T14:02:25.222Z,63.05
2023-10-13T14:04:52.065Z,62.85
2023-10-13T14:07:19.755Z,62.42
2023-10-13T14:09:47.273Z,62.66
2023-10-13T14:12:15.518Z,63.52
2023-10-13T14:14:43.850Z,63.70
2023-10-13T14:17:10.318Z,62.48
2023-10-13T14:19:37.265Z,63.52
2023-10-13T14:22:03.655Z,64.89
2023-10-13T14:24:30.035Z,62.64
2023-10-13T14:26:57.562Z,63.06
2023-10-13T14:29:24.059Z,63.55
2023-10-13T14:31:50.557Z,63.14
2023-10-13T14:34:16.972Z,63.45
2023-10-13T14:36:43.358Z,63.47
2023-10-13T14:39:09.729Z,63.19
2023-10-13T14:41:37.180Z,63.02
2023-10-13T14:44:03.718Z,63.09
2023-10-13T14:46:30.180Z,62.39
2023-10-13T14:48:56.620Z,63.75
2023-10-13T14:51:23.144Z,62.82
2023-10-13T14:53:52.568Z,61.22
2023-10-13T14:56:20.651Z,60.82
2023-10-13T14:58:47.036Z,60.59
2023-10-13T15:01:18.677Z,59.82
2023-10-13T15:03:46.609Z,60.79
2023-10-13T15:06:20.000Z,60.76
2023-10-13T15:08:46.556Z,61.06
2023-10-13T15:11:15.906Z,59.88
2023-10-13T15:13:42.339Z,59.89
2023-10-13T15:16:20.215Z,60.18
2023-10-13T15:18:47.572Z,60.44
2023-10-13T15:21:24.177Z,60.12
2023-10-13T15:23:50.695Z,61.59
2023-10-13T15:26:17.049Z,61.48
2023-10-13T15:28:43.489Z,60.65
2023-10-13T15:31:12.962Z,60.92
2023-10-13T15:33:39.333Z,61.47
2023-10-13T15:36:06.110Z,60.78
2023-10-13T15:38:32.545Z,61.65
2023-10-13T15:40:59.099Z,61.45
2023-10-13T15:43:25.589Z,61.92
2023-10-13T15:45:52.003Z,62.27
2023-10-13T15:48:20.635Z,62.49
2023-10-13T15:50:48.410Z,62.43
2023-10-13T15:53:15.006Z,62.88
2023-10-13T15:55:41.665Z,62.20
2023-10-13T15:58:08.210Z,62.95
2023-10-13T16:00:38.024Z,62.83
2023-10-13T16:03:05.596Z,62.33
2023-10-13T16:05:33.475Z,63.19
2023-10-13T16:07:59.837Z,63.19
2023-10-13T16:10:26.208Z,62.97
2023-10-13T16:12:52.598Z,63.39
2023-10-13T16:15:19.057Z,63.67
2023-10-13T16:17:45.602Z,63.10
2023-10-13T16:20:12.022Z,63.17
2023-10-13T16:22:38.464Z,63.95
2023-10-13T16:25:16.627Z,63.30
2023-10-13T16:27:45.813Z,63.94
2023-10-13T16:30:14.940Z,63.97
2023-10-13T16:32:42.353Z,63.72
2023-10-13T16:35:09.213Z,63.62
2023-10-13T16:37:35.560Z,63.32
2023-10-13T16:40:01.986Z,64.00
2023-10-13T16:42:28.448Z,64.46
2023-10-13T16:44:54.866Z,64.00
2023-10-13T16:47:21.271Z,64.54
2023-10-13T16:49:47.636Z,64.58
2023-10-13T16:52:14.127Z,64.84
2023-10-13T16:54:40.530Z,64.37
2023-10-13T16:57:07.044Z,64.79
2023-10-13T16:59:33.385Z,64.63
2023-10-13T17:01:59.741Z,64.38
2023-10-13T17:04:28.458Z,64.56
2023-10-13T17:06:55.313Z,64.12
2023-10-13T17:09:21.820Z,64.37
2023-10-13T17:11:48.202Z,64.42
2023-10-13T17:14:14.600Z,64.62
2023-10-13T17:16:41.107Z,64.53
2023-10-13T17:19:07.510Z,64.20
2023-10-13T17:21:33.956Z,64.57
2023-10-13T17:24:00.662Z,65.00
2023-10-13T17:26:27.059Z,65.40
2023-10-13T17:28:53.894Z,64.91
2023-10-13T17:31:20.283Z,65.04
2023-10-13T17:33:47.534Z,65.04
2023-10-13T17:36:13.962Z,65.45
2023-10-13T17:38:40.398Z,66.54
2023-10-13T17:41:11.871Z,66.51
2023-10-13T17:43:38.507Z,67.51
2023-10-13T17:46:11.593Z,69.02
2023-10-13T17:48:39.291Z,70.12
2023-10-13T17:51:06.959Z,72.58
2023-10-13T17:53:33.681Z,73.25
2023-10-13T17:56:03.757Z,74.83
2023-10-13T17:58:30.198Z,74.93
2023-10-13T18:00:56.643Z,75.09
2023-10-13T18:03:23.134Z,77.65
2023-10-13T18:05:49.566Z,78.18
2023-10-13T18:08:15.909Z,79.79
2023-10-13T18:10:42.271Z,80.43
2023-10-13T18:13:08.641Z,81.35
2023-10-13T18:15:35.019Z,82.76
2023-10-13T18:18:01.461Z,82.97
2023-10-13T18:20:27.905Z,83.96
2023-10-13T18:22:55.576Z,85.24
2023-10-13T18:25:22.273Z,86.33
2023-10-13T18:27:48.675Z,88.64
2023-10-13T18:30:15.252Z,87.87
2023-10-13T18:32:42.674Z,87.75
2023-10-13T18:35:10.733Z,87.46
2023-10-13T18:37:37.134Z,86.44
2023-10-13T18:40:04.723Z,85.99
2023-10-13T18:42:31.102Z,85.29
2023-10-13T18:44:57.476Z,85.85
2023-10-13T18:47:23.843Z,85.19
2023-10-13T18:49:50.207Z,84.87
2023-10-13T18:52:16.550Z,84.36
2023-10-13T18:54:42.953Z,83.49
2023-10-13T18:57:09.365Z,83.05
2023-10-13T18:59:35.776Z,82.50
2023-10-13T19:02:02.267Z,82.02
2023-10-13T19:04:28.677Z,81.28
2023-10-13T19:06:55.074Z,81.66
2023-10-13T19:09:21.565Z,81.82
2023-10-13T19:11:48.042Z,81.14
2023-10-13T19:14:14.405Z,81.02
2023-10-13T19:16:41.764Z,81.29
2023-10-13T19:19:08.579Z,81.33
2023-10-13T19:21:35.065Z,81.53
2023-10-13T19:24:01.445Z,83.71
2023-10-13T19:26:29.178Z,84.08
2023-10-13T19:28:57.933Z,85.70
2023-10-13T19:31:29.000Z,84.87
2023-10-13T19:33:58.592Z,85.59
2023-10-13T19:36:25.110Z,86.13
2023-10-13T19:38:53.175Z,86.12
2023-10-13T19:41:21.756Z,86.74
2023-10-13T19:43:49.376Z,85.49
2023-10-13T19:46:16.866Z,86.03
2023-10-13T19:48:43.905Z,86.33
2023-10-13T19:51:11.183Z,85.83
2023-10-13T19:53:42.182Z,86.00
2023-10-13T19:56:15.710Z,86.63
2023-10-13T19:58:42.125Z,87.88
2023-10-13T20:01:11.350Z,87.83
2023-10-13T20:03:38.259Z,88.43
2023-10-13T20:06:04.736Z,89.01
2023-10-13T20:08:31.138Z,89.28
2023-10-13T20:10:57.512Z,89.17
2023-10-13T20:13:23.864Z,88.74
2023-10-13T20:15:50.332Z,88.34
2023-10-13T20:18:16.701Z,87.75
2023-10-13T20:20:44.167Z,88.26
2023-10-13T20:23:14.458Z,88.51
2023-10-13T20:25:44.065Z,87.98
2023-10-13T20:28:10.687Z,88.28
2023-10-13T20:30:37.251Z,88.20
2023-10-13T20:33:04.498Z,89.01
2023-10-13T20:35:30.923Z,88.06
2023-10-13T20:37:57.368Z,87.69
2023-10-13T20:40:23.817Z,88.08
2023-10-13T20:42:51.713Z,87.85
2023-10-13T20:45:20.288Z,89.33
2023-10-13T20:47:46.661Z,89.21
2023-10-13T20:50:13.121Z,91.07
2023-10-13T20:52:39.478Z,91.65
2023-10-13T20:55:06.248Z,91.96
2023-10-13T20:57:32.701Z,92.63
2023-10-13T21:00:00.074Z,93.06
2023-10-13T21:02:26.591Z,93.71
2023-10-13T21:04:53.309Z,93.38
2023-10-13T21:07:19.885Z,94.68
2023-10-13T21:09:46.315Z,94.83
2023-10-13T21:12:12.740Z,95.86
2023-10-13T21:14:39.148Z,96.92
2023-10-13T21:17:05.960Z,99.19
2023-10-13T21:19:32.407Z,100.00
2023-10-13T21:21:58.803Z,100.00
2023-10-13T21:24:25.350Z,100.00
2023-10-13T21:26:51.726Z,100.00
2023-10-13T21:29:18.061Z,100.00
2023-10-13T21:31:44.488Z,100.00
2023-10-13T21:34:11.039Z,100.00
2023-10-13T21:36:37.490Z,100.00
2023-10-13T21:39:04.566Z,100.00
2023-10-13T21:41:31.431Z,100.00
2023-10-13T21:43:59.822Z,100.00
2023-10-13T21:46:26.983Z,100.00
2023-10-13T21:48:54.431Z,100.00
2023-10-13T21:51:22.603Z,100.00
2023-10-13T21:53:49.239Z,100.00
2023-10-13T21:56:17.498Z,100.00
2023-10-13T21:58:44.306Z,100.00
2023-10-13T22:01:11.172Z,100.00
2023-10-13T22:03:37.743Z,100.00
2023-10-13T22:06:04.254Z,100.00
2023-10-13T22:08:30.712Z,100.00
2023-10-13T22:10:57.080Z,100.00
2023-10-13T22:13:23.501Z,100.00
2023-10-13T22:15:49.884Z,100.00
2023-10-13T22:18:16.289Z,100.00
2023-10-13T22:20:42.645Z,100.00
2023-10-13T22:23:09.083Z,100.00
2023-10-13T22:25:35.465Z,100.00
2023-10-13T22:28:01.896Z,100.00
2023-10-13T22:30:28.328Z,100.00
2023-10-13T22:32:54.713Z,100.00
2023-10-13T22:35:21.146Z,100.00
2023-10-13T22:37:47.968Z,100.00
2023-10-13T22:40:14.514Z,100.00
2023-10-13T22:42:41.144Z,100.00
2023-10-13T22:45:08.252Z,100.00
2023-10-13T22:47:34.612Z,100.00
2023-10-13T22:50:00.956Z,100.00
2023-10-13T22:52:27.319Z,100.00
2023-10-13T22:54:53.716Z,100.00
2023-10-13T22:57:20.118Z,100.00
2023-10-13T22:59:46.459Z,100.00
2023-10-13T23:02:12.821Z,100.00
2023-10-13T23:04:39.208Z,100.00
2023-10-13T23:07:05.730Z,100.00
2023-10-13T23:09:32.168Z,100.00
2023-10-13T23:11:58.885Z,100.00
2023-10-13T23:14:25.243Z,100.00
2023-10-13T23:16:51.741Z,100.00
2023-10-13T23:19:18.270Z,100.00
2023-10-13T23:21:44.670Z,100.00
2023-10-13T23:24:11.377Z,100.00
2023-10-13T23:26:38.066Z,100.00
2023-10-13T23:29:04.507Z,100.00
2023-10-13T23:31:31.183Z,100.00
2023-10-13T23:33:57.632Z,100.00
2023-10-13T23:36:24.119Z,100.00
2023-10-13T23:38:50.480Z,100.00
2023-10-13T23:41:16.820Z,100.00
2023-10-13T23:43:44.271Z,100.00
2023-10-13T23:46:11.909Z,100.00
2023-10-13T23:48:39.368Z,100.00
2023-10-13T23:51:05.915Z,99.84
2023-10-13T23:53:34.633Z,99.72
2023-10-13T23:56:09.221Z,100.00
2023-10-13T23:58:40.295Z,99.11
